sensor_id;sensor_type;location;lat;lon;timestamp;P1;durP1;ratioP1;P2;durP2;ratioP2
6531;SDS011;3299;42.004;24.868;2024-02-21T00:01:27;22.13;;;15.23;;
6531;SDS011;3299;42.004;24.868;2024-02-21T00:03:52;24.13;;;15.93;;
6531;SDS011;3299;42.004;24.868;2024-02-21T00:06:18;23.23;;;16.67;;
6531;SDS011;3299;42.004;24.868;2024-02-21T00:08:43;20.85;;;15.45;;
6531;SDS011;3299;42.004;24.868;2024-02-21T00:11:08;22.15;;;15.15;;
6531;SDS011;3299;42.004;24.868;2024-02-21T00:13:34;21.67;;;15.40;;
6531;SDS011;3299;42.004;24.868;2024-02-21T00:16:00;19.52;;;14.35;;
6531;SDS011;3299;42.004;24.868;2024-02-21T00:18:26;20.95;;;13.98;;
6531;SDS011;3299;42.004;24.868;2024-02-21T00:20:51;23.73;;;14.07;;
6531;SDS011;3299;42.004;24.868;2024-02-21T00:23:17;20.73;;;15.30;;
6531;SDS011;3299;42.004;24.868;2024-02-21T00:25:43;21.38;;;15.48;;
6531;SDS011;3299;42.004;24.868;2024-02-21T00:28:08;24.48;;;16.20;;
6531;SDS011;3299;42.004;24.868;2024-02-21T00:30:33;26.45;;;15.98;;
6531;SDS011;3299;42.004;24.868;2024-02-21T00:32:59;27.88;;;16.90;;
6531;SDS011;3299;42.004;24.868;2024-02-21T00:35:24;26.15;;;17.15;;
6531;SDS011;3299;42.004;24.868;2024-02-21T00:37:50;26.17;;;18.17;;
6531;SDS011;3299;42.004;24.868;2024-02-21T00:40:16;29.75;;;16.77;;
6531;SDS011;3299;42.004;24.868;2024-02-21T00:42:45;29.73;;;17.77;;
6531;SDS011;3299;42.004;24.868;2024-02-21T00:45:13;30.10;;;18.65;;
6531;SDS011;3299;42.004;24.868;2024-02-21T00:47:39;27.20;;;18.00;;
6531;SDS011;3299;42.004;24.868;2024-02-21T00:50:05;24.77;;;17.50;;
6531;SDS011;3299;42.004;24.868;2024-02-21T00:52:32;27.50;;;18.40;;
6531;SDS011;3299;42.004;24.868;2024-02-21T00:54:58;29.65;;;18.80;;
6531;SDS011;3299;42.004;24.868;2024-02-21T00:57:23;27.35;;;17.65;;
6531;SDS011;3299;42.004;24.868;2024-02-21T00:59:49;23.48;;;15.13;;
6531;SDS011;3299;42.004;24.868;2024-02-21T01:02:14;22.45;;;15.50;;
6531;SDS011;3299;42.004;24.868;2024-02-21T01:04:39;23.85;;;16.17;;
6531;SDS011;3299;42.004;24.868;2024-02-21T01:07:05;29.25;;;16.60;;
6531;SDS011;3299;42.004;24.868;2024-02-21T01:09:30;23.83;;;14.90;;
6531;SDS011;3299;42.004;24.868;2024-02-21T01:11:56;18.90;;;13.07;;
6531;SDS011;3299;42.004;24.868;2024-02-21T01:14:21;18.08;;;12.95;;
6531;SDS011;3299;42.004;24.868;2024-02-21T01:16:47;20.00;;;13.02;;
6531;SDS011;3299;42.004;24.868;2024-02-21T01:19:12;17.45;;;12.75;;
6531;SDS011;3299;42.004;24.868;2024-02-21T01:21:37;19.80;;;14.15;;
6531;SDS011;3299;42.004;24.868;2024-02-21T01:24:03;18.80;;;13.45;;
6531;SDS011;3299;42.004;24.868;2024-02-21T01:26:29;18.08;;;12.77;;
6531;SDS011;3299;42.004;24.868;2024-02-21T01:28:54;19.00;;;13.32;;
6531;SDS011;3299;42.004;24.868;2024-02-21T01:31:19;19.02;;;12.40;;
6531;SDS011;3299;42.004;24.868;2024-02-21T01:33:45;18.23;;;12.52;;
6531;SDS011;3299;42.004;24.868;2024-02-21T01:36:10;13.82;;;10.95;;
6531;SDS011;3299;42.004;24.868;2024-02-21T01:38:36;16.45;;;11.57;;
6531;SDS011;3299;42.004;24.868;2024-02-21T01:41:03;14.60;;;11.80;;
6531;SDS011;3299;42.004;24.868;2024-02-21T01:43:28;16.30;;;11.90;;
6531;SDS011;3299;42.004;24.868;2024-02-21T01:45:54;19.63;;;13.23;;
6531;SDS011;3299;42.004;24.868;2024-02-21T01:48:24;17.35;;;12.18;;
6531;SDS011;3299;42.004;24.868;2024-02-21T01:50:50;14.02;;;10.75;;
6531;SDS011;3299;42.004;24.868;2024-02-21T01:53:21;16.92;;;11.82;;
6531;SDS011;3299;42.004;24.868;2024-02-21T01:55:50;17.17;;;11.73;;
6531;SDS011;3299;42.004;24.868;2024-02-21T01:58:16;16.30;;;11.48;;
6531;SDS011;3299;42.004;24.868;2024-02-21T02:00:43;17.65;;;11.63;;
6531;SDS011;3299;42.004;24.868;2024-02-21T02:03:10;16.77;;;11.48;;
6531;SDS011;3299;42.004;24.868;2024-02-21T02:05:45;17.90;;;11.13;;
6531;SDS011;3299;42.004;24.868;2024-02-21T02:08:20;20.08;;;11.40;;
6531;SDS011;3299;42.004;24.868;2024-02-21T02:10:49;15.07;;;11.82;;
6531;SDS011;3299;42.004;24.868;2024-02-21T02:13:15;16.85;;;12.18;;
6531;SDS011;3299;42.004;24.868;2024-02-21T02:15:44;16.10;;;10.95;;
6531;SDS011;3299;42.004;24.868;2024-02-21T02:18:11;15.25;;;11.07;;
6531;SDS011;3299;42.004;24.868;2024-02-21T02:20:37;14.55;;;10.88;;
6531;SDS011;3299;42.004;24.868;2024-02-21T02:25:53;13.75;;;10.27;;
6531;SDS011;3299;42.004;24.868;2024-02-21T02:28:18;17.08;;;11.38;;
6531;SDS011;3299;42.004;24.868;2024-02-21T02:30:44;12.90;;;9.88;;
6531;SDS011;3299;42.004;24.868;2024-02-21T02:33:10;14.75;;;9.70;;
6531;SDS011;3299;42.004;24.868;2024-02-21T02:35:35;13.98;;;10.68;;
6531;SDS011;3299;42.004;24.868;2024-02-21T02:38:01;15.48;;;10.20;;
6531;SDS011;3299;42.004;24.868;2024-02-21T02:40:30;14.70;;;10.63;;
6531;SDS011;3299;42.004;24.868;2024-02-21T02:42:59;15.43;;;10.85;;
6531;SDS011;3299;42.004;24.868;2024-02-21T02:45:25;14.48;;;10.00;;
6531;SDS011;3299;42.004;24.868;2024-02-21T02:47:51;15.80;;;10.68;;
6531;SDS011;3299;42.004;24.868;2024-02-21T02:50:21;14.00;;;10.70;;
6531;SDS011;3299;42.004;24.868;2024-02-21T02:52:50;12.57;;;10.07;;
6531;SDS011;3299;42.004;24.868;2024-02-21T02:55:15;13.75;;;10.45;;
6531;SDS011;3299;42.004;24.868;2024-02-21T02:57:41;12.93;;;10.25;;
6531;SDS011;3299;42.004;24.868;2024-02-21T03:00:07;14.02;;;10.10;;
6531;SDS011;3299;42.004;24.868;2024-02-21T03:02:34;15.85;;;11.40;;
6531;SDS011;3299;42.004;24.868;2024-02-21T03:05:00;15.73;;;11.43;;
6531;SDS011;3299;42.004;24.868;2024-02-21T03:07:25;16.55;;;10.63;;
6531;SDS011;3299;42.004;24.868;2024-02-21T03:09:51;16.70;;;11.13;;
6531;SDS011;3299;42.004;24.868;2024-02-21T03:12:18;16.67;;;11.30;;
6531;SDS011;3299;42.004;24.868;2024-02-21T03:14:49;15.50;;;10.73;;
6531;SDS011;3299;42.004;24.868;2024-02-21T03:17:15;15.35;;;11.48;;
6531;SDS011;3299;42.004;24.868;2024-02-21T03:19:41;15.00;;;10.65;;
6531;SDS011;3299;42.004;24.868;2024-02-21T03:22:06;14.48;;;11.25;;
6531;SDS011;3299;42.004;24.868;2024-02-21T03:24:32;15.45;;;11.05;;
6531;SDS011;3299;42.004;24.868;2024-02-21T03:26:58;17.23;;;10.52;;
6531;SDS011;3299;42.004;24.868;2024-02-21T03:29:24;18.02;;;11.52;;
6531;SDS011;3299;42.004;24.868;2024-02-21T03:31:49;15.65;;;10.93;;
6531;SDS011;3299;42.004;24.868;2024-02-21T03:34:15;15.68;;;10.93;;
6531;SDS011;3299;42.004;24.868;2024-02-21T03:36:40;15.23;;;10.65;;
6531;SDS011;3299;42.004;24.868;2024-02-21T03:39:06;14.50;;;11.20;;
6531;SDS011;3299;42.004;24.868;2024-02-21T03:41:33;15.05;;;11.00;;
6531;SDS011;3299;42.004;24.868;2024-02-21T03:43:58;14.73;;;11.10;;
6531;SDS011;3299;42.004;24.868;2024-02-21T03:46:24;18.27;;;11.55;;
6531;SDS011;3299;42.004;24.868;2024-02-21T03:48:50;12.65;;;10.30;;
6531;SDS011;3299;42.004;24.868;2024-02-21T03:51:15;16.25;;;10.20;;
6531;SDS011;3299;42.004;24.868;2024-02-21T03:53:41;14.85;;;10.95;;
6531;SDS011;3299;42.004;24.868;2024-02-21T03:56:06;12.68;;;10.15;;
6531;SDS011;3299;42.004;24.868;2024-02-21T03:58:32;16.42;;;10.82;;
6531;SDS011;3299;42.004;24.868;2024-02-21T04:01:01;12.88;;;9.93;;
6531;SDS011;3299;42.004;24.868;2024-02-21T04:03:27;15.98;;;11.55;;
6531;SDS011;3299;42.004;24.868;2024-02-21T04:05:53;14.93;;;11.95;;
6531;SDS011;3299;42.004;24.868;2024-02-21T04:08:18;15.20;;;10.57;;
6531;SDS011;3299;42.004;24.868;2024-02-21T04:10:44;18.65;;;13.82;;
6531;SDS011;3299;42.004;24.868;2024-02-21T04:13:10;14.05;;;10.20;;
6531;SDS011;3299;42.004;24.868;2024-02-21T04:15:35;15.38;;;10.27;;
6531;SDS011;3299;42.004;24.868;2024-02-21T04:18:01;13.57;;;10.07;;
6531;SDS011;3299;42.004;24.868;2024-02-21T04:20:28;12.23;;;9.48;;
6531;SDS011;3299;42.004;24.868;2024-02-21T04:22:53;13.05;;;10.80;;
6531;SDS011;3299;42.004;24.868;2024-02-21T04:25:19;15.93;;;11.07;;
6531;SDS011;3299;42.004;24.868;2024-02-21T04:27:44;15.75;;;11.73;;
6531;SDS011;3299;42.004;24.868;2024-02-21T04:30:10;16.65;;;10.95;;
6531;SDS011;3299;42.004;24.868;2024-02-21T04:32:36;16.10;;;10.88;;
6531;SDS011;3299;42.004;24.868;2024-02-21T04:35:01;13.68;;;10.27;;
6531;SDS011;3299;42.004;24.868;2024-02-21T04:37:26;15.13;;;10.32;;
6531;SDS011;3299;42.004;24.868;2024-02-21T04:39:52;14.82;;;10.98;;
6531;SDS011;3299;42.004;24.868;2024-02-21T04:42:17;19.17;;;12.57;;
6531;SDS011;3299;42.004;24.868;2024-02-21T04:44:43;20.30;;;13.35;;
6531;SDS011;3299;42.004;24.868;2024-02-21T04:47:08;16.33;;;11.90;;
6531;SDS011;3299;42.004;24.868;2024-02-21T04:49:34;15.05;;;10.23;;
6531;SDS011;3299;42.004;24.868;2024-02-21T04:52:00;15.20;;;10.48;;
6531;SDS011;3299;42.004;24.868;2024-02-21T04:54:25;14.15;;;10.10;;
6531;SDS011;3299;42.004;24.868;2024-02-21T04:56:51;16.45;;;11.23;;
6531;SDS011;3299;42.004;24.868;2024-02-21T04:59:16;13.27;;;10.63;;
6531;SDS011;3299;42.004;24.868;2024-02-21T05:01:42;14.43;;;10.48;;
6531;SDS011;3299;42.004;24.868;2024-02-21T05:04:07;15.38;;;11.10;;
6531;SDS011;3299;42.004;24.868;2024-02-21T05:06:39;15.20;;;10.70;;
6531;SDS011;3299;42.004;24.868;2024-02-21T05:09:06;14.05;;;10.90;;
6531;SDS011;3299;42.004;24.868;2024-02-21T05:11:31;15.63;;;11.15;;
6531;SDS011;3299;42.004;24.868;2024-02-21T05:13:57;15.68;;;11.20;;
6531;SDS011;3299;42.004;24.868;2024-02-21T05:16:22;15.73;;;11.75;;
6531;SDS011;3299;42.004;24.868;2024-02-21T05:18:48;14.73;;;10.40;;
6531;SDS011;3299;42.004;24.868;2024-02-21T05:21:14;14.52;;;10.95;;
6531;SDS011;3299;42.004;24.868;2024-02-21T05:23:39;15.93;;;10.93;;
6531;SDS011;3299;42.004;24.868;2024-02-21T05:26:05;16.98;;;10.93;;
6531;SDS011;3299;42.004;24.868;2024-02-21T05:28:31;15.30;;;11.60;;
6531;SDS011;3299;42.004;24.868;2024-02-21T05:30:56;19.52;;;13.57;;
6531;SDS011;3299;42.004;24.868;2024-02-21T05:33:21;18.15;;;11.82;;
6531;SDS011;3299;42.004;24.868;2024-02-21T05:35:47;18.23;;;10.38;;
6531;SDS011;3299;42.004;24.868;2024-02-21T05:38:13;14.63;;;10.95;;
6531;SDS011;3299;42.004;24.868;2024-02-21T05:40:39;15.55;;;11.55;;
6531;SDS011;3299;42.004;24.868;2024-02-21T05:43:04;15.82;;;10.55;;
6531;SDS011;3299;42.004;24.868;2024-02-21T05:45:30;17.00;;;10.85;;
6531;SDS011;3299;42.004;24.868;2024-02-21T05:47:55;16.10;;;10.68;;
6531;SDS011;3299;42.004;24.868;2024-02-21T05:50:22;15.40;;;10.52;;
6531;SDS011;3299;42.004;24.868;2024-02-21T05:52:50;15.50;;;10.75;;
6531;SDS011;3299;42.004;24.868;2024-02-21T05:55:16;17.60;;;11.55;;
6531;SDS011;3299;42.004;24.868;2024-02-21T05:57:42;13.73;;;10.52;;
6531;SDS011;3299;42.004;24.868;2024-02-21T06:00:07;13.07;;;10.48;;
6531;SDS011;3299;42.004;24.868;2024-02-21T06:02:33;17.67;;;11.32;;
6531;SDS011;3299;42.004;24.868;2024-02-21T06:04:58;16.20;;;10.85;;
6531;SDS011;3299;42.004;24.868;2024-02-21T06:07:24;14.73;;;11.18;;
6531;SDS011;3299;42.004;24.868;2024-02-21T06:09:49;12.27;;;10.13;;
6531;SDS011;3299;42.004;24.868;2024-02-21T06:12:14;17.60;;;11.57;;
6531;SDS011;3299;42.004;24.868;2024-02-21T06:14:40;19.10;;;12.32;;
6531;SDS011;3299;42.004;24.868;2024-02-21T06:17:06;14.90;;;10.60;;
6531;SDS011;3299;42.004;24.868;2024-02-21T06:19:31;15.98;;;11.00;;
6531;SDS011;3299;42.004;24.868;2024-02-21T06:21:57;28.02;;;16.33;;
6531;SDS011;3299;42.004;24.868;2024-02-21T06:24:22;26.60;;;14.90;;
6531;SDS011;3299;42.004;24.868;2024-02-21T06:26:47;15.43;;;10.77;;
6531;SDS011;3299;42.004;24.868;2024-02-21T06:29:13;16.10;;;11.20;;
6531;SDS011;3299;42.004;24.868;2024-02-21T06:31:38;15.80;;;11.65;;
6531;SDS011;3299;42.004;24.868;2024-02-21T06:34:04;17.02;;;11.60;;
6531;SDS011;3299;42.004;24.868;2024-02-21T06:36:30;16.55;;;11.70;;
6531;SDS011;3299;42.004;24.868;2024-02-21T06:38:55;22.40;;;12.35;;
6531;SDS011;3299;42.004;24.868;2024-02-21T06:41:20;15.65;;;11.88;;
6531;SDS011;3299;42.004;24.868;2024-02-21T06:43:46;18.88;;;11.85;;
6531;SDS011;3299;42.004;24.868;2024-02-21T06:46:12;14.57;;;10.75;;
6531;SDS011;3299;42.004;24.868;2024-02-21T06:48:50;13.05;;;9.77;;
6531;SDS011;3299;42.004;24.868;2024-02-21T06:51:15;15.70;;;10.50;;
6531;SDS011;3299;42.004;24.868;2024-02-21T06:53:41;14.43;;;10.55;;
6531;SDS011;3299;42.004;24.868;2024-02-21T06:56:07;17.08;;;10.95;;
6531;SDS011;3299;42.004;24.868;2024-02-21T06:58:33;13.10;;;10.00;;
6531;SDS011;3299;42.004;24.868;2024-02-21T07:00:58;14.30;;;10.43;;
6531;SDS011;3299;42.004;24.868;2024-02-21T07:03:23;20.05;;;11.85;;
6531;SDS011;3299;42.004;24.868;2024-02-21T07:05:49;39.60;;;19.83;;
6531;SDS011;3299;42.004;24.868;2024-02-21T07:08:15;14.10;;;10.55;;
6531;SDS011;3299;42.004;24.868;2024-02-21T07:10:40;12.98;;;10.60;;
6531;SDS011;3299;42.004;24.868;2024-02-21T07:13:06;16.05;;;10.70;;
6531;SDS011;3299;42.004;24.868;2024-02-21T07:15:31;15.98;;;11.05;;
6531;SDS011;3299;42.004;24.868;2024-02-21T07:17:57;16.85;;;11.13;;
6531;SDS011;3299;42.004;24.868;2024-02-21T07:20:23;27.27;;;15.95;;
6531;SDS011;3299;42.004;24.868;2024-02-21T07:22:48;27.65;;;16.27;;
6531;SDS011;3299;42.004;24.868;2024-02-21T07:25:14;25.02;;;15.35;;
6531;SDS011;3299;42.004;24.868;2024-02-21T07:27:39;37.85;;;20.95;;
6531;SDS011;3299;42.004;24.868;2024-02-21T07:30:06;28.65;;;16.88;;
6531;SDS011;3299;42.004;24.868;2024-02-21T07:32:31;29.20;;;15.93;;
6531;SDS011;3299;42.004;24.868;2024-02-21T07:34:57;21.83;;;13.18;;
6531;SDS011;3299;42.004;24.868;2024-02-21T07:37:22;19.88;;;12.80;;
6531;SDS011;3299;42.004;24.868;2024-02-21T07:39:47;11.07;;;9.23;;
6531;SDS011;3299;42.004;24.868;2024-02-21T07:42:13;16.75;;;12.10;;
6531;SDS011;3299;42.004;24.868;2024-02-21T07:44:38;26.13;;;16.42;;
6531;SDS011;3299;42.004;24.868;2024-02-21T07:47:04;26.83;;;16.67;;
6531;SDS011;3299;42.004;24.868;2024-02-21T07:49:31;14.23;;;10.40;;
6531;SDS011;3299;42.004;24.868;2024-02-21T07:51:57;17.73;;;11.85;;
6531;SDS011;3299;42.004;24.868;2024-02-21T07:54:22;43.72;;;25.58;;
6531;SDS011;3299;42.004;24.868;2024-02-21T07:56:48;23.20;;;15.95;;
6531;SDS011;3299;42.004;24.868;2024-02-21T07:59:13;14.25;;;11.05;;
6531;SDS011;3299;42.004;24.868;2024-02-21T08:01:40;12.32;;;10.05;;
6531;SDS011;3299;42.004;24.868;2024-02-21T08:04:05;13.60;;;9.57;;
6531;SDS011;3299;42.004;24.868;2024-02-21T08:06:31;18.40;;;11.05;;
6531;SDS011;3299;42.004;24.868;2024-02-21T08:08:56;13.75;;;10.27;;
6531;SDS011;3299;42.004;24.868;2024-02-21T08:11:22;24.33;;;15.68;;
6531;SDS011;3299;42.004;24.868;2024-02-21T08:13:47;19.80;;;13.13;;
6531;SDS011;3299;42.004;24.868;2024-02-21T08:16:13;15.05;;;11.00;;
6531;SDS011;3299;42.004;24.868;2024-02-21T08:18:38;13.13;;;10.20;;
6531;SDS011;3299;42.004;24.868;2024-02-21T08:21:03;13.38;;;10.13;;
6531;SDS011;3299;42.004;24.868;2024-02-21T08:23:29;15.52;;;11.10;;
6531;SDS011;3299;42.004;24.868;2024-02-21T08:25:55;14.10;;;10.85;;
6531;SDS011;3299;42.004;24.868;2024-02-21T08:28:20;18.02;;;10.32;;
6531;SDS011;3299;42.004;24.868;2024-02-21T08:30:45;17.60;;;13.20;;
6531;SDS011;3299;42.004;24.868;2024-02-21T08:33:14;17.73;;;12.13;;
6531;SDS011;3299;42.004;24.868;2024-02-21T08:35:41;16.30;;;11.52;;
6531;SDS011;3299;42.004;24.868;2024-02-21T08:38:07;15.02;;;12.48;;
6531;SDS011;3299;42.004;24.868;2024-02-21T08:40:32;15.23;;;11.13;;
6531;SDS011;3299;42.004;24.868;2024-02-21T08:43:00;16.60;;;11.93;;
6531;SDS011;3299;42.004;24.868;2024-02-21T08:45:25;15.18;;;10.98;;
6531;SDS011;3299;42.004;24.868;2024-02-21T08:47:51;14.48;;;11.52;;
6531;SDS011;3299;42.004;24.868;2024-02-21T08:50:16;17.98;;;12.52;;
6531;SDS011;3299;42.004;24.868;2024-02-21T08:52:41;15.20;;;11.20;;
6531;SDS011;3299;42.004;24.868;2024-02-21T08:55:07;14.38;;;10.38;;
6531;SDS011;3299;42.004;24.868;2024-02-21T08:57:33;13.93;;;10.95;;
6531;SDS011;3299;42.004;24.868;2024-02-21T09:00:02;15.50;;;11.60;;
6531;SDS011;3299;42.004;24.868;2024-02-21T09:02:34;14.82;;;11.50;;
6531;SDS011;3299;42.004;24.868;2024-02-21T09:05:05;14.57;;;10.05;;
6531;SDS011;3299;42.004;24.868;2024-02-21T09:07:30;14.05;;;10.15;;
6531;SDS011;3299;42.004;24.868;2024-02-21T09:09:56;12.98;;;10.27;;
6531;SDS011;3299;42.004;24.868;2024-02-21T09:12:21;15.25;;;10.07;;
6531;SDS011;3299;42.004;24.868;2024-02-21T09:14:47;13.50;;;10.32;;
6531;SDS011;3299;42.004;24.868;2024-02-21T09:17:15;13.48;;;10.80;;
6531;SDS011;3299;42.004;24.868;2024-02-21T09:19:45;16.52;;;10.88;;
6531;SDS011;3299;42.004;24.868;2024-02-21T09:22:11;15.63;;;11.45;;
6531;SDS011;3299;42.004;24.868;2024-02-21T09:24:37;16.90;;;11.98;;
6531;SDS011;3299;42.004;24.868;2024-02-21T09:27:02;19.08;;;13.25;;
6531;SDS011;3299;42.004;24.868;2024-02-21T09:29:28;15.15;;;11.40;;
6531;SDS011;3299;42.004;24.868;2024-02-21T09:31:53;15.25;;;11.35;;
6531;SDS011;3299;42.004;24.868;2024-02-21T09:34:18;14.02;;;10.55;;
6531;SDS011;3299;42.004;24.868;2024-02-21T09:36:44;11.82;;;9.35;;
6531;SDS011;3299;42.004;24.868;2024-02-21T09:39:09;12.98;;;10.50;;
6531;SDS011;3299;42.004;24.868;2024-02-21T09:41:39;15.88;;;11.15;;
6531;SDS011;3299;42.004;24.868;2024-02-21T09:44:10;16.27;;;10.57;;
6531;SDS011;3299;42.004;24.868;2024-02-21T09:46:45;12.52;;;10.20;;
6531;SDS011;3299;42.004;24.868;2024-02-21T09:51:53;16.92;;;11.75;;
6531;SDS011;3299;42.004;24.868;2024-02-21T09:54:22;14.73;;;11.52;;
6531;SDS011;3299;42.004;24.868;2024-02-21T09:56:48;13.98;;;10.45;;
6531;SDS011;3299;42.004;24.868;2024-02-21T09:59:16;11.15;;;8.65;;
6531;SDS011;3299;42.004;24.868;2024-02-21T10:01:42;12.57;;;9.05;;
6531;SDS011;3299;42.004;24.868;2024-02-21T10:04:09;13.02;;;8.98;;
6531;SDS011;3299;42.004;24.868;2024-02-21T10:06:34;6.63;;;5.28;;
6531;SDS011;3299;42.004;24.868;2024-02-21T10:09:02;5.43;;;4.93;;
6531;SDS011;3299;42.004;24.868;2024-02-21T10:11:28;5.75;;;5.18;;
6531;SDS011;3299;42.004;24.868;2024-02-21T10:14:04;5.18;;;4.68;;
6531;SDS011;3299;42.004;24.868;2024-02-21T10:16:30;9.13;;;6.30;;
6531;SDS011;3299;42.004;24.868;2024-02-21T10:18:56;7.55;;;5.47;;
6531;SDS011;3299;42.004;24.868;2024-02-21T10:21:21;6.25;;;5.65;;
6531;SDS011;3299;42.004;24.868;2024-02-21T10:23:47;7.25;;;5.40;;
6531;SDS011;3299;42.004;24.868;2024-02-21T10:26:14;7.57;;;6.20;;
6531;SDS011;3299;42.004;24.868;2024-02-21T10:28:41;10.80;;;7.60;;
6531;SDS011;3299;42.004;24.868;2024-02-21T10:31:11;6.25;;;5.65;;
6531;SDS011;3299;42.004;24.868;2024-02-21T10:33:40;7.20;;;5.90;;
6531;SDS011;3299;42.004;24.868;2024-02-21T10:36:07;9.10;;;6.60;;
6531;SDS011;3299;42.004;24.868;2024-02-21T10:38:39;9.93;;;6.55;;
6531;SDS011;3299;42.004;24.868;2024-02-21T10:41:07;10.35;;;6.82;;
6531;SDS011;3299;42.004;24.868;2024-02-21T10:43:39;7.15;;;6.22;;
6531;SDS011;3299;42.004;24.868;2024-02-21T10:46:08;7.07;;;5.93;;
6531;SDS011;3299;42.004;24.868;2024-02-21T10:48:45;6.13;;;5.53;;
6531;SDS011;3299;42.004;24.868;2024-02-21T10:51:15;7.10;;;6.07;;
6531;SDS011;3299;42.004;24.868;2024-02-21T10:56:32;5.30;;;4.80;;
6531;SDS011;3299;42.004;24.868;2024-02-21T10:59:02;5.43;;;4.88;;
6531;SDS011;3299;42.004;24.868;2024-02-21T11:01:29;5.43;;;4.93;;
6531;SDS011;3299;42.004;24.868;2024-02-21T11:03:57;4.55;;;4.18;;
6531;SDS011;3299;42.004;24.868;2024-02-21T11:06:25;7.68;;;5.32;;
6531;SDS011;3299;42.004;24.868;2024-02-21T11:09:06;5.60;;;5.10;;
6531;SDS011;3299;42.004;24.868;2024-02-21T11:11:35;5.57;;;5.00;;
6531;SDS011;3299;42.004;24.868;2024-02-21T11:16:35;5.25;;;4.75;;
6531;SDS011;3299;42.004;24.868;2024-02-21T11:19:08;4.53;;;4.22;;
6531;SDS011;3299;42.004;24.868;2024-02-21T11:21:37;4.85;;;4.45;;
6531;SDS011;3299;42.004;24.868;2024-02-21T11:24:03;5.65;;;5.07;;
6531;SDS011;3299;42.004;24.868;2024-02-21T11:26:29;8.93;;;4.85;;
6531;SDS011;3299;42.004;24.868;2024-02-21T11:29:00;5.40;;;4.90;;
6531;SDS011;3299;42.004;24.868;2024-02-21T11:31:38;5.82;;;5.30;;
6531;SDS011;3299;42.004;24.868;2024-02-21T11:34:10;5.60;;;5.10;;
6531;SDS011;3299;42.004;24.868;2024-02-21T11:36:39;6.97;;;5.47;;
6531;SDS011;3299;42.004;24.868;2024-02-21T11:39:25;7.43;;;4.82;;
6531;SDS011;3299;42.004;24.868;2024-02-21T11:42:04;4.70;;;4.25;;
6531;SDS011;3299;42.004;24.868;2024-02-21T11:44:39;5.13;;;4.63;;
6531;SDS011;3299;42.004;24.868;2024-02-21T11:47:07;4.65;;;3.80;;
6531;SDS011;3299;42.004;24.868;2024-02-21T11:49:36;4.78;;;4.05;;
6531;SDS011;3299;42.004;24.868;2024-02-21T11:52:03;4.07;;;3.75;;
6531;SDS011;3299;42.004;24.868;2024-02-21T11:54:29;4.30;;;3.90;;
6531;SDS011;3299;42.004;24.868;2024-02-21T11:56:55;4.20;;;3.83;;
6531;SDS011;3299;42.004;24.868;2024-02-21T11:59:21;5.20;;;4.40;;
6531;SDS011;3299;42.004;24.868;2024-02-21T12:01:46;4.63;;;3.65;;
6531;SDS011;3299;42.004;24.868;2024-02-21T12:04:13;4.65;;;4.25;;
6531;SDS011;3299;42.004;24.868;2024-02-21T12:06:38;4.97;;;4.57;;
6531;SDS011;3299;42.004;24.868;2024-02-21T12:09:07;3.28;;;2.97;;
6531;SDS011;3299;42.004;24.868;2024-02-21T12:11:35;3.60;;;3.05;;
6531;SDS011;3299;42.004;24.868;2024-02-21T12:14:04;3.05;;;2.85;;
6531;SDS011;3299;42.004;24.868;2024-02-21T12:16:30;4.38;;;3.17;;
6531;SDS011;3299;42.004;24.868;2024-02-21T12:18:59;3.10;;;2.90;;
6531;SDS011;3299;42.004;24.868;2024-02-21T12:21:26;3.00;;;2.80;;
6531;SDS011;3299;42.004;24.868;2024-02-21T12:23:55;3.15;;;2.95;;
6531;SDS011;3299;42.004;24.868;2024-02-21T12:26:20;3.30;;;3.10;;
6531;SDS011;3299;42.004;24.868;2024-02-21T12:28:46;3.67;;;3.38;;
6531;SDS011;3299;42.004;24.868;2024-02-21T12:31:12;4.35;;;3.85;;
6531;SDS011;3299;42.004;24.868;2024-02-21T12:33:38;3.88;;;3.55;;
6531;SDS011;3299;42.004;24.868;2024-02-21T12:36:03;4.18;;;3.75;;
6531;SDS011;3299;42.004;24.868;2024-02-21T12:38:29;3.63;;;3.33;;
6531;SDS011;3299;42.004;24.868;2024-02-21T12:40:55;3.70;;;3.40;;
6531;SDS011;3299;42.004;24.868;2024-02-21T12:43:22;3.92;;;3.60;;
6531;SDS011;3299;42.004;24.868;2024-02-21T12:45:48;4.25;;;3.85;;
6531;SDS011;3299;42.004;24.868;2024-02-21T12:48:13;3.72;;;3.42;;
6531;SDS011;3299;42.004;24.868;2024-02-21T12:50:39;5.15;;;3.40;;
6531;SDS011;3299;42.004;24.868;2024-02-21T12:53:09;3.90;;;3.47;;
6531;SDS011;3299;42.004;24.868;2024-02-21T12:55:34;3.80;;;3.30;;
6531;SDS011;3299;42.004;24.868;2024-02-21T12:58:03;3.90;;;2.75;;
6531;SDS011;3299;42.004;24.868;2024-02-21T13:00:29;3.22;;;2.90;;
6531;SDS011;3299;42.004;24.868;2024-02-21T13:02:56;2.90;;;2.70;;
6531;SDS011;3299;42.004;24.868;2024-02-21T13:05:22;3.28;;;2.95;;
6531;SDS011;3299;42.004;24.868;2024-02-21T13:07:48;3.40;;;3.10;;
6531;SDS011;3299;42.004;24.868;2024-02-21T13:10:13;3.22;;;2.97;;
6531;SDS011;3299;42.004;24.868;2024-02-21T13:12:39;3.95;;;3.08;;
6531;SDS011;3299;42.004;24.868;2024-02-21T13:15:05;3.42;;;3.13;;
6531;SDS011;3299;42.004;24.868;2024-02-21T13:17:30;3.90;;;3.08;;
6531;SDS011;3299;42.004;24.868;2024-02-21T13:19:56;3.47;;;2.88;;
6531;SDS011;3299;42.004;24.868;2024-02-21T13:22:22;3.97;;;3.53;;
6531;SDS011;3299;42.004;24.868;2024-02-21T13:24:51;4.57;;;3.78;;
6531;SDS011;3299;42.004;24.868;2024-02-21T13:27:16;5.55;;;3.67;;
6531;SDS011;3299;42.004;24.868;2024-02-21T13:29:42;3.47;;;3.25;;
6531;SDS011;3299;42.004;24.868;2024-02-21T13:32:07;4.47;;;3.90;;
6531;SDS011;3299;42.004;24.868;2024-02-21T13:34:33;3.90;;;3.45;;
6531;SDS011;3299;42.004;24.868;2024-02-21T13:36:59;3.63;;;3.25;;
6531;SDS011;3299;42.004;24.868;2024-02-21T13:39:24;4.22;;;3.88;;
6531;SDS011;3299;42.004;24.868;2024-02-21T13:41:50;4.53;;;4.13;;
6531;SDS011;3299;42.004;24.868;2024-02-21T13:44:16;6.95;;;5.03;;
6531;SDS011;3299;42.004;24.868;2024-02-21T13:46:41;5.75;;;4.93;;
6531;SDS011;3299;42.004;24.868;2024-02-21T13:49:06;4.35;;;3.95;;
6531;SDS011;3299;42.004;24.868;2024-02-21T13:51:35;5.00;;;3.55;;
6531;SDS011;3299;42.004;24.868;2024-02-21T13:54:05;3.95;;;3.65;;
6531;SDS011;3299;42.004;24.868;2024-02-21T13:56:34;3.83;;;3.42;;
6531;SDS011;3299;42.004;24.868;2024-02-21T13:59:00;3.70;;;3.38;;
6531;SDS011;3299;42.004;24.868;2024-02-21T14:01:26;3.83;;;3.33;;
6531;SDS011;3299;42.004;24.868;2024-02-21T14:03:53;3.28;;;2.97;;
6531;SDS011;3299;42.004;24.868;2024-02-21T14:06:18;2.72;;;2.53;;
6531;SDS011;3299;42.004;24.868;2024-02-21T14:08:44;3.35;;;3.15;;
6531;SDS011;3299;42.004;24.868;2024-02-21T14:11:10;3.65;;;3.13;;
6531;SDS011;3299;42.004;24.868;2024-02-21T14:13:35;2.92;;;2.72;;
6531;SDS011;3299;42.004;24.868;2024-02-21T14:16:01;3.75;;;3.45;;
6531;SDS011;3299;42.004;24.868;2024-02-21T14:18:27;3.90;;;2.80;;
6531;SDS011;3299;42.004;24.868;2024-02-21T14:20:52;3.47;;;3.17;;
6531;SDS011;3299;42.004;24.868;2024-02-21T14:23:18;2.55;;;2.42;;
6531;SDS011;3299;42.004;24.868;2024-02-21T14:25:43;2.83;;;2.63;;
6531;SDS011;3299;42.004;24.868;2024-02-21T14:28:09;2.92;;;2.78;;
6531;SDS011;3299;42.004;24.868;2024-02-21T14:30:34;3.08;;;2.88;;
6531;SDS011;3299;42.004;24.868;2024-02-21T14:33:00;3.03;;;2.72;;
6531;SDS011;3299;42.004;24.868;2024-02-21T14:35:25;3.30;;;3.03;;
6531;SDS011;3299;42.004;24.868;2024-02-21T14:37:51;3.25;;;2.88;;
6531;SDS011;3299;42.004;24.868;2024-02-21T14:40:18;3.15;;;2.88;;
6531;SDS011;3299;42.004;24.868;2024-02-21T14:42:44;3.00;;;2.80;;
6531;SDS011;3299;42.004;24.868;2024-02-21T14:45:11;2.53;;;2.33;;
6531;SDS011;3299;42.004;24.868;2024-02-21T14:47:36;3.40;;;3.10;;
6531;SDS011;3299;42.004;24.868;2024-02-21T14:50:02;10.27;;;5.95;;